Amelia, Nebraska
Current Conditions -  °F | °C
As of 2:15 PM on Sunday 25 Jan 2015 (Local Time) from KONL Reporting Station
Overcast Overcast  
Wind Chill: 34°   Ceiling: 3400
Heat Index: 40°   Visibility: 10mi
Dew Point: 37°   Wind: 9mph
Humidity: 86%   Direction: 310°NW
Pressure: 30.03"   Gusts: NA
Location:  42.24°N, 98.91°W
Report Text: KONL 252015Z AUTO 31008KT 10SM SCT011 SCT019 OVC034 05/03 A3003 RMK AO2 T00460025
Loading
Personal Weather Stations






























Interactive Weather Map New forecast layout! Learn more

10-Day Weather Forecast

Advertisements
Track Severe Weather on mobile